Anderson Dam, Idaho
Current Conditions -  °F | °C
As of 11:58 AM on Tuesday 21 Oct 2014 (Local Time) from KMUO Reporting Station
Broken Clouds Broken Clouds  
Wind Chill: 51°   Ceiling: 4000
Heat Index: 51°   Visibility: 10mi
Dew Point: 46°   Wind: 15mph
Humidity: 82%   Direction: 260°W
Pressure: 30.04"   Gusts: NA
Location:  43.2609°N, 115.781°W
Report Text: KMUO 211758Z 26013KT 10SM BKN040 BKN049 BKN060 11/08 A3004 RMK SLP166 60004 T01070077 10107 20079 52025
Loading
Personal Weather Stations






























Interactive Weather Map
Tropical Storm Tracking
New forecast layout! Learn more

10-Day Weather Forecast

Advertisements
Track Severe Weather on mobile